Terminal Aerodrome Forecast
Issued by NWS

Current Version | Previous Version | Text Only | Print | Product List | Glossary Off
Versions: 1 2 3 4 5 6 7 8 9 10 11 12 13 14 15 16 17 18 19 20

000
FTUS41 KPBZ 011100
TAFMGW
TAF
KMGW 011120Z 0112/0212 20003KT P6SM BKN012 OVC018
     FM011500 23005KT P6SM OVC025
     FM011700 23008KT P6SM BKN040
     FM020500 24006KT P6SM VCSH BKN035=

USA.gov is the U.S. government's official web portal to all federal, state and local government web resources and services.